createdAt,value
2022-11-10T00:01:18.936Z,81.71
2022-11-10T00:03:48.628Z,81.48
2022-11-10T00:06:15.668Z,81.92
2022-11-10T00:08:42.638Z,82.16
2022-11-10T00:11:10.103Z,82.50
2022-11-10T00:14:01.152Z,82.35
2022-11-10T00:16:46.827Z,82.51
2022-11-10T00:19:13.833Z,81.99
2022-11-10T00:21:40.834Z,81.49
2022-11-10T00:24:08.167Z,81.77
2022-11-10T00:26:35.125Z,81.50
2022-11-10T00:29:02.105Z,81.05
2022-11-10T00:31:29.152Z,81.24
2022-11-10T00:33:56.623Z,80.85
2022-11-10T00:36:24.560Z,81.54
2022-11-10T00:38:52.442Z,81.22
2022-11-10T00:41:19.951Z,81.75
2022-11-10T00:43:47.500Z,81.79
2022-11-10T00:46:15.580Z,81.85
2022-11-10T00:48:42.575Z,81.36
2022-11-10T00:51:41.123Z,81.31
2022-11-10T00:54:08.340Z,81.61
2022-11-10T00:56:35.406Z,80.90
2022-11-10T00:59:02.400Z,81.45
2022-11-10T01:01:29.495Z,80.94
2022-11-10T01:03:56.503Z,80.68
2022-11-10T01:06:23.473Z,80.38
2022-11-10T01:08:50.624Z,80.49
2022-11-10T01:11:22.945Z,80.99
2022-11-10T01:13:55.649Z,80.45
2022-11-10T01:16:31.248Z,81.17
2022-11-10T01:19:02.433Z,80.11
2022-11-10T01:21:30.892Z,80.19
2022-11-10T01:23:58.468Z,79.95
2022-11-10T01:26:26.165Z,79.87
2022-11-10T01:28:53.133Z,79.85
2022-11-10T01:31:22.418Z,80.50
2022-11-10T01:33:49.803Z,79.97
2022-11-10T01:36:16.893Z,80.17
2022-11-10T01:38:44.464Z,80.23
2022-11-10T01:41:14.430Z,80.60
2022-11-10T01:43:42.154Z,80.42
2022-11-10T01:46:14.053Z,80.11
2022-11-10T01:48:59.919Z,80.53
2022-11-10T01:52:02.866Z,80.00
2022-11-10T01:54:36.202Z,80.25
2022-11-10T01:57:09.960Z,80.27
2022-11-10T01:59:47.456Z,80.11
2022-11-10T02:02:30.854Z,79.71
2022-11-10T02:05:00.328Z,79.82
2022-11-10T02:07:27.662Z,79.39
2022-11-10T02:09:54.689Z,80.18
2022-11-10T02:12:36.845Z,80.36
2022-11-10T02:15:13.052Z,80.13
2022-11-10T02:17:40.693Z,79.56
2022-11-10T02:20:12.652Z,79.93
2022-11-10T02:22:40.405Z,80.12
2022-11-10T02:25:08.271Z,79.48
2022-11-10T02:27:35.322Z,80.31
2022-11-10T02:30:02.446Z,80.06
2022-11-10T02:32:29.418Z,80.28
2022-11-10T02:34:56.392Z,79.66
2022-11-10T02:37:23.413Z,79.70
2022-11-10T02:39:50.391Z,80.42
2022-11-10T02:42:20.538Z,79.93
2022-11-10T02:44:47.785Z,80.60
2022-11-10T02:47:15.258Z,80.83
2022-11-10T02:49:42.232Z,79.98
2022-11-10T02:52:09.251Z,79.68
2022-11-10T02:54:36.237Z,80.23
2022-11-10T02:57:03.507Z,80.26
2022-11-10T02:59:30.516Z,80.00
2022-11-10T03:01:57.497Z,80.37
2022-11-10T03:04:24.598Z,79.66
2022-11-10T03:06:51.628Z,80.67
2022-11-10T03:09:18.652Z,79.60
2022-11-10T03:11:45.628Z,80.19
2022-11-10T03:14:12.645Z,80.61
2022-11-10T03:16:39.625Z,80.00
2022-11-10T03:19:06.696Z,80.43
2022-11-10T03:21:33.667Z,79.66
2022-11-10T03:24:00.629Z,80.42
2022-11-10T03:26:28.172Z,79.19
2022-11-10T03:28:55.146Z,79.76
2022-11-10T03:31:22.187Z,80.29
2022-11-10T03:33:49.183Z,80.52
2022-11-10T03:36:16.312Z,80.28
2022-11-10T03:38:43.305Z,80.50
2022-11-10T03:41:19.672Z,79.92
2022-11-10T03:43:49.230Z,80.67
2022-11-10T03:46:17.471Z,80.42
2022-11-10T03:48:48.887Z,80.12
2022-11-10T03:51:20.553Z,80.73
2022-11-10T03:53:47.649Z,79.95
2022-11-10T03:56:14.670Z,80.09
2022-11-10T03:58:41.929Z,80.73
2022-11-10T04:01:09.047Z,81.40
2022-11-10T04:03:36.066Z,81.39
2022-11-10T04:06:21.924Z,81.52
2022-11-10T04:09:00.731Z,81.18
2022-11-10T04:11:48.320Z,81.51
2022-11-10T04:14:35.251Z,81.10
2022-11-10T04:17:03.045Z,80.82
2022-11-10T04:19:30.726Z,80.99
2022-11-10T04:21:58.153Z,81.36
2022-11-10T04:24:25.138Z,81.34
2022-11-10T04:26:54.620Z,81.17
2022-11-10T04:29:25.536Z,81.18
2022-11-10T04:31:52.514Z,81.08
2022-11-10T04:34:19.749Z,80.82
2022-11-10T04:36:46.911Z,81.73
2022-11-10T04:39:17.456Z,81.61
2022-11-10T04:41:44.454Z,81.04
2022-11-10T04:44:11.421Z,81.44
2022-11-10T04:46:40.323Z,81.88
2022-11-10T04:49:08.349Z,81.88
2022-11-10T04:51:39.917Z,82.11
2022-11-10T04:54:12.457Z,82.71
2022-11-10T04:56:41.216Z,82.53
2022-11-10T04:59:08.388Z,82.69
2022-11-10T05:01:35.367Z,82.71
2022-11-10T05:04:02.422Z,82.76
2022-11-10T05:06:29.466Z,83.41
2022-11-10T05:08:56.474Z,83.28
2022-11-10T05:11:23.798Z,83.09
2022-11-10T05:13:50.927Z,83.10
2022-11-10T05:16:17.978Z,83.57
2022-11-10T05:18:45.042Z,83.31
2022-11-10T05:21:12.053Z,83.79
2022-11-10T05:23:39.263Z,84.36
2022-11-10T05:26:10.830Z,84.70
2022-11-10T05:28:39.751Z,84.69
2022-11-10T05:31:07.169Z,84.42
2022-11-10T05:33:36.118Z,84.41
2022-11-10T05:36:03.756Z,85.48
2022-11-10T05:38:31.453Z,84.80
2022-11-10T05:40:58.807Z,84.85
2022-11-10T05:43:38.957Z,84.72
2022-11-10T05:46:10.657Z,84.69
2022-11-10T05:48:37.856Z,84.89
2022-11-10T05:51:05.106Z,85.06
2022-11-10T05:53:32.511Z,85.41
2022-11-10T05:56:00.215Z,85.34
2022-11-10T05:58:27.229Z,85.24
2022-11-10T06:00:54.356Z,84.97
2022-11-10T06:03:22.277Z,85.48
2022-11-10T06:05:49.581Z,85.36
2022-11-10T06:08:17.780Z,85.37
2022-11-10T06:10:45.204Z,85.70
2022-11-10T06:13:12.202Z,85.27
2022-11-10T06:15:40.072Z,85.81
2022-11-10T06:18:07.333Z,85.71
2022-11-10T06:20:34.621Z,85.92
2022-11-10T06:23:10.368Z,86.02
2022-11-10T06:25:41.274Z,86.47
2022-11-10T06:28:10.014Z,86.21
2022-11-10T06:30:38.610Z,85.68
2022-11-10T06:33:05.671Z,86.14
2022-11-10T06:35:32.775Z,86.31
2022-11-10T06:38:06.553Z,85.79
2022-11-10T06:40:34.337Z,85.79
2022-11-10T06:43:02.214Z,86.12
2022-11-10T06:45:29.390Z,86.28
2022-11-10T06:48:05.920Z,86.20
2022-11-10T06:50:33.921Z,86.29
2022-11-10T06:53:02.080Z,86.40
2022-11-10T06:55:30.375Z,86.59
2022-11-10T06:57:57.747Z,86.68
2022-11-10T07:00:28.443Z,86.13
2022-11-10T07:03:07.162Z,86.24
2022-11-10T07:05:36.634Z,86.18
2022-11-10T07:08:13.634Z,86.06
2022-11-10T07:10:43.832Z,86.64
2022-11-10T07:13:12.830Z,86.09
2022-11-10T07:15:40.115Z,85.90
2022-11-10T07:18:07.352Z,86.53
2022-11-10T07:20:35.332Z,86.42
2022-11-10T07:23:07.074Z,85.58
2022-11-10T07:25:37.354Z,85.06
2022-11-10T07:28:08.264Z,85.24
2022-11-10T07:30:36.566Z,85.26
2022-11-10T07:33:09.510Z,85.30
2022-11-10T07:35:37.155Z,84.82
2022-11-10T07:38:12.960Z,84.29
2022-11-10T07:40:40.243Z,84.86
2022-11-10T07:43:07.246Z,84.56
2022-11-10T07:45:34.467Z,84.17
2022-11-10T07:48:06.327Z,84.18
2022-11-10T07:50:34.492Z,84.21
2022-11-10T07:53:18.014Z,84.67
2022-11-10T07:55:46.263Z,84.13
2022-11-10T07:58:17.733Z,84.66
2022-11-10T08:00:46.923Z,84.07
2022-11-10T08:03:21.101Z,84.51
2022-11-10T08:05:48.828Z,84.90
2022-11-10T08:08:15.897Z,84.33
2022-11-10T08:10:43.672Z,84.37
2022-11-10T08:13:13.168Z,84.33
2022-11-10T08:15:42.301Z,83.52
2022-11-10T08:18:18.898Z,82.92
2022-11-10T08:20:46.481Z,83.55
2022-11-10T08:23:17.447Z,82.82
2022-11-10T08:25:46.653Z,82.90
2022-11-10T08:28:17.904Z,82.36
2022-11-10T08:30:48.036Z,82.41
2022-11-10T08:33:19.024Z,82.28
2022-11-10T08:35:52.688Z,81.80
2022-11-10T08:38:23.267Z,82.01
2022-11-10T08:40:50.813Z,81.56
2022-11-10T08:43:21.109Z,81.29
2022-11-10T08:45:48.325Z,80.31
2022-11-10T08:48:20.057Z,81.24
2022-11-10T08:50:49.581Z,80.50
2022-11-10T08:53:21.941Z,81.05
2022-11-10T08:55:50.079Z,80.27
2022-11-10T08:58:22.021Z,80.55
2022-11-10T09:00:50.188Z,81.00
2022-11-10T09:03:26.683Z,81.04
2022-11-10T09:05:58.268Z,80.92
2022-11-10T09:08:26.470Z,81.36
2022-11-10T09:10:53.547Z,79.95
2022-11-10T09:13:29.405Z,81.57
2022-11-10T09:16:02.976Z,81.16
2022-11-10T09:18:30.872Z,79.90
2022-11-10T09:20:58.002Z,80.43
2022-11-10T09:23:26.475Z,79.89
2022-11-10T09:25:56.114Z,80.86
2022-11-10T09:28:23.818Z,80.44
2022-11-10T09:30:52.337Z,80.48
2022-11-10T09:33:20.544Z,80.16
2022-11-10T09:35:47.993Z,79.88
2022-11-10T09:38:15.007Z,80.04
2022-11-10T09:41:09.070Z,79.15
2022-11-10T09:44:14.441Z,78.99
2022-11-10T09:46:53.514Z,77.59
2022-11-10T09:49:39.244Z,78.87
2022-11-10T09:52:10.286Z,78.71
2022-11-10T09:54:51.405Z,78.58
2022-11-10T09:57:24.486Z,78.38
2022-11-10T09:59:52.319Z,77.47
2022-11-10T10:02:45.442Z,76.26
2022-11-10T10:05:53.678Z,76.73
2022-11-10T10:08:53.885Z,76.76
2022-11-10T10:12:35.840Z,77.69
2022-11-10T10:16:07.489Z,76.81
2022-11-10T10:19:35.650Z,76.53
2022-11-10T10:22:16.071Z,77.36
2022-11-10T10:24:43.380Z,76.90
2022-11-10T10:27:26.655Z,76.27
2022-11-10T10:29:56.876Z,76.32
2022-11-10T10:32:30.056Z,75.83
2022-11-10T10:34:57.783Z,76.06
2022-11-10T10:37:54.206Z,75.91
2022-11-10T10:40:24.724Z,75.40
2022-11-10T10:42:51.947Z,76.16
2022-11-10T10:45:29.809Z,75.52
2022-11-10T10:47:58.480Z,75.50
2022-11-10T10:50:33.112Z,74.31
2022-11-10T10:53:23.156Z,74.95
2022-11-10T10:56:16.441Z,74.92
2022-11-10T10:59:01.262Z,75.02
2022-11-10T11:01:37.060Z,75.00
2022-11-10T11:04:43.691Z,74.75
2022-11-10T11:07:25.901Z,74.66
2022-11-10T11:09:53.214Z,75.76
2022-11-10T11:12:22.523Z,75.38
2022-11-10T11:14:49.617Z,75.81
2022-11-10T11:17:23.200Z,74.79
2022-11-10T11:19:59.894Z,74.77
2022-11-10T11:22:57.174Z,75.72
2022-11-10T11:25:39.247Z,75.82
2022-11-10T11:29:20.247Z,75.00
2022-11-10T11:32:45.685Z,75.70
2022-11-10T11:36:11.141Z,74.49
2022-11-10T11:39:19.609Z,74.31
2022-11-10T11:42:19.198Z,73.34
2022-11-10T11:45:29.097Z,72.75
2022-11-10T11:48:33.849Z,74.13
2022-11-10T11:51:44.200Z,73.59
2022-11-10T11:54:48.531Z,73.87
2022-11-10T11:57:46.064Z,73.77
2022-11-10T12:00:22.176Z,73.80
2022-11-10T12:03:42.830Z,73.07
2022-11-10T12:06:59.216Z,74.21
2022-11-10T12:10:12.233Z,73.83
2022-11-10T12:13:08.928Z,72.47
2022-11-10T12:16:24.049Z,72.79
2022-11-10T12:19:13.837Z,72.40
2022-11-10T12:21:57.844Z,73.14
2022-11-10T12:25:07.304Z,73.00
2022-11-10T12:27:43.454Z,73.46
2022-11-10T12:30:15.681Z,73.66
2022-11-10T12:32:56.390Z,74.08
2022-11-10T12:35:34.192Z,74.30
2022-11-10T12:38:21.686Z,73.41
2022-11-10T12:41:04.928Z,73.45
2022-11-10T12:43:57.466Z,72.55
2022-11-10T12:46:24.764Z,72.25
2022-11-10T12:49:32.407Z,72.60
2022-11-10T12:52:21.519Z,72.02
2022-11-10T12:54:53.115Z,70.35
2022-11-10T12:57:34.299Z,71.78
2022-11-10T13:00:27.445Z,71.78
2022-11-10T13:02:57.203Z,71.78
2022-11-10T13:05:36.729Z,72.29
2022-11-10T13:08:20.085Z,72.60
2022-11-10T13:11:28.591Z,72.64
2022-11-10T13:14:40.615Z,71.71
2022-11-10T13:17:57.058Z,71.24
2022-11-10T13:20:39.465Z,70.97
2022-11-10T13:23:30.325Z,71.80
2022-11-10T13:26:44.131Z,70.55
2022-11-10T13:29:43.960Z,71.79
2022-11-10T13:32:35.683Z,71.76
2022-11-10T13:35:30.525Z,71.78
2022-11-10T13:38:00.631Z,72.24
2022-11-10T13:40:32.808Z,70.37
2022-11-10T13:42:59.932Z,71.23
2022-11-10T13:45:44.949Z,71.05
2022-11-10T13:48:11.802Z,71.23
2022-11-10T13:51:25.555Z,71.43
2022-11-10T13:54:49.944Z,72.62
2022-11-10T13:57:49.883Z,71.89
2022-11-10T14:00:19.459Z,72.13
2022-11-10T14:02:58.968Z,72.22
2022-11-10T14:05:29.263Z,72.85
2022-11-10T14:08:06.159Z,71.92
2022-11-10T14:10:49.158Z,71.92
2022-11-10T14:14:04.746Z,73.39
2022-11-10T14:16:39.776Z,72.14
2022-11-10T14:19:40.220Z,72.58
2022-11-10T14:22:47.299Z,72.43
2022-11-10T14:25:41.097Z,72.75
2022-11-10T14:28:31.948Z,73.19
2022-11-10T14:31:00.045Z,73.74
2022-11-10T14:33:30.779Z,72.75
2022-11-10T14:36:09.235Z,73.51
2022-11-10T14:38:44.696Z,73.35
2022-11-10T14:41:20.922Z,74.84
2022-11-10T14:44:11.298Z,74.62
2022-11-10T14:46:38.572Z,74.27
2022-11-10T14:49:05.639Z,74.72
2022-11-10T14:51:38.220Z,74.02
2022-11-10T14:54:07.189Z,74.41
2022-11-10T14:56:36.825Z,74.16
2022-11-10T14:59:07.830Z,73.59
2022-11-10T15:01:48.110Z,74.99
2022-11-10T15:04:16.083Z,74.90
2022-11-10T15:06:47.067Z,75.21
2022-11-10T15:09:32.041Z,74.53
2022-11-10T15:12:23.399Z,74.68
2022-11-10T15:15:17.698Z,75.85
2022-11-10T15:17:52.443Z,75.36
2022-11-10T15:20:41.200Z,75.82
2022-11-10T15:23:40.532Z,75.18
2022-11-10T15:26:25.491Z,75.62
2022-11-10T15:28:53.841Z,75.54
2022-11-10T15:31:33.890Z,75.59
2022-11-10T15:34:05.008Z,77.01
2022-11-10T15:36:39.568Z,75.94
2022-11-10T15:39:12.731Z,75.98
2022-11-10T15:41:46.749Z,75.92
2022-11-10T15:44:24.132Z,77.34
2022-11-10T15:46:58.933Z,77.72
2022-11-10T15:49:37.422Z,77.39
2022-11-10T15:52:22.880Z,76.78
2022-11-10T15:54:51.632Z,77.03
2022-11-10T15:57:20.282Z,77.97
2022-11-10T15:59:47.281Z,77.69
2022-11-10T16:02:24.935Z,76.72
2022-11-10T16:05:00.053Z,76.81
2022-11-10T16:07:27.587Z,76.96
2022-11-10T16:09:54.648Z,77.59
2022-11-10T16:12:23.494Z,77.16
2022-11-10T16:14:53.416Z,77.49
2022-11-10T16:17:22.707Z,76.90
2022-11-10T16:19:49.679Z,77.20
2022-11-10T16:22:19.146Z,77.02
2022-11-10T16:24:47.057Z,76.73
2022-11-10T16:27:15.342Z,76.46
2022-11-10T16:29:43.130Z,76.28
2022-11-10T16:32:12.232Z,77.57
2022-11-10T16:34:39.278Z,77.50
2022-11-10T16:37:06.369Z,77.82
2022-11-10T16:39:33.349Z,76.98
2022-11-10T16:42:00.540Z,76.83
2022-11-10T16:44:27.580Z,77.70
2022-11-10T16:46:57.213Z,77.68
2022-11-10T16:49:35.348Z,77.33
2022-11-10T16:52:15.190Z,78.49
2022-11-10T16:54:42.232Z,78.50
2022-11-10T16:57:17.300Z,78.54
2022-11-10T16:59:45.667Z,78.29
2022-11-10T17:02:30.307Z,78.12
2022-11-10T17:04:57.434Z,77.95
2022-11-10T17:07:29.081Z,77.85
2022-11-10T17:10:00.825Z,77.26
2022-11-10T17:12:27.805Z,77.71
2022-11-10T17:14:54.915Z,77.44
2022-11-10T17:17:22.111Z,77.90
2022-11-10T17:19:51.093Z,76.55
2022-11-10T17:22:21.499Z,77.21
2022-11-10T17:24:54.879Z,77.12
2022-11-10T17:27:22.049Z,77.32
2022-11-10T17:29:49.065Z,76.85
2022-11-10T17:32:16.071Z,77.50
2022-11-10T17:34:43.101Z,77.31
2022-11-10T17:37:15.480Z,76.75
2022-11-10T17:39:42.508Z,77.29
2022-11-10T17:42:15.406Z,77.45
2022-11-10T17:44:42.526Z,77.07
2022-11-10T17:47:09.497Z,77.29
2022-11-10T17:49:36.699Z,77.08
2022-11-10T17:52:04.098Z,77.54
2022-11-10T17:54:31.421Z,77.27
2022-11-10T17:56:58.443Z,77.28
2022-11-10T17:59:25.472Z,77.45
2022-11-10T18:01:52.539Z,77.16
2022-11-10T18:04:19.792Z,77.05
2022-11-10T18:06:46.838Z,76.49
2022-11-10T18:09:14.170Z,76.75
2022-11-10T18:11:41.124Z,77.01
2022-11-10T18:14:11.353Z,77.06
2022-11-10T18:16:38.680Z,76.02
2022-11-10T18:19:05.772Z,75.43
2022-11-10T18:21:32.749Z,76.06
2022-11-10T18:23:59.784Z,76.04
2022-11-10T18:26:26.805Z,75.01
2022-11-10T18:28:56.240Z,74.91
2022-11-10T18:31:23.284Z,75.44
2022-11-10T18:33:53.844Z,75.39
2022-11-10T18:36:20.991Z,75.15
2022-11-10T18:38:48.035Z,75.21
2022-11-10T18:41:33.611Z,75.73
2022-11-10T18:44:00.579Z,74.85
2022-11-10T18:46:27.639Z,74.59
2022-11-10T18:48:54.617Z,74.40
2022-11-10T18:51:21.611Z,74.36
2022-11-10T18:53:48.627Z,74.67
2022-11-10T18:56:15.714Z,74.30
2022-11-10T18:58:42.913Z,74.08
2022-11-10T19:01:11.306Z,75.01
2022-11-10T19:03:38.728Z,74.85
2022-11-10T19:06:06.520Z,74.31
2022-11-10T19:08:33.511Z,74.87
2022-11-10T19:11:00.774Z,74.76
2022-11-10T19:13:30.117Z,73.92
2022-11-10T19:16:00.182Z,73.93
2022-11-10T19:18:29.659Z,74.61
2022-11-10T19:21:03.539Z,74.85
2022-11-10T19:23:30.848Z,74.83
2022-11-10T19:26:03.571Z,73.98
2022-11-10T19:28:30.904Z,74.32
2022-11-10T19:31:10.889Z,74.67
2022-11-10T19:33:42.739Z,74.11
2022-11-10T19:36:10.842Z,75.10
2022-11-10T19:38:38.250Z,74.45
2022-11-10T19:41:15.898Z,73.91
2022-11-10T19:43:47.310Z,73.57
2022-11-10T19:46:22.026Z,74.32
2022-11-10T19:48:49.311Z,74.15
2022-11-10T19:51:18.937Z,74.01
2022-11-10T19:53:49.205Z,74.36
2022-11-10T19:56:20.289Z,74.04
2022-11-10T19:58:48.789Z,74.91
2022-11-10T20:01:18.669Z,74.12
2022-11-10T20:03:46.722Z,74.05
2022-11-10T20:06:23.899Z,74.42
2022-11-10T20:08:51.243Z,73.93
2022-11-10T20:11:27.027Z,74.52
2022-11-10T20:14:00.514Z,74.54
2022-11-10T20:16:27.581Z,74.19
2022-11-10T20:18:54.931Z,74.35
2022-11-10T20:21:23.685Z,74.94
2022-11-10T20:23:57.354Z,74.01
2022-11-10T20:26:25.935Z,74.10
2022-11-10T20:28:53.207Z,74.58
2022-11-10T20:31:26.176Z,74.71
2022-11-10T20:33:56.282Z,74.80
2022-11-10T20:36:33.836Z,74.74
2022-11-10T20:39:03.838Z,75.01
2022-11-10T20:41:32.893Z,74.52
2022-11-10T20:43:59.932Z,74.57
2022-11-10T20:46:53.406Z,75.65
2022-11-10T20:49:19.171Z,74.88
2022-11-10T20:51:46.208Z,75.48
2022-11-10T20:54:15.012Z,75.13
2022-11-10T20:56:41.977Z,75.66
2022-11-10T20:59:09.397Z,74.89
2022-11-10T21:01:37.570Z,75.19
2022-11-10T21:04:06.080Z,75.76
2022-11-10T21:06:33.374Z,74.83
2022-11-10T21:09:00.530Z,75.49
2022-11-10T21:11:45.934Z,75.05
2022-11-10T21:14:13.420Z,75.61
2022-11-10T21:16:40.445Z,75.88
2022-11-10T21:19:07.444Z,75.59
2022-11-10T21:21:34.827Z,76.34
2022-11-10T21:24:07.685Z,76.58
2022-11-10T21:26:35.739Z,76.03
2022-11-10T21:29:06.315Z,76.41
2022-11-10T21:31:33.899Z,76.01
2022-11-10T21:34:00.978Z,76.93
2022-11-10T21:36:29.457Z,76.48
2022-11-10T21:38:58.634Z,77.38
2022-11-10T21:41:26.694Z,77.08
2022-11-10T21:43:53.880Z,77.05
2022-11-10T21:46:21.050Z,77.37
2022-11-10T21:48:50.159Z,76.84
2022-11-10T21:51:17.475Z,76.94
2022-11-10T21:53:44.455Z,77.73
2022-11-10T21:56:12.412Z,77.55
2022-11-10T21:58:40.315Z,78.34
2022-11-10T22:01:18.243Z,77.70
2022-11-10T22:03:45.834Z,78.28
2022-11-10T22:06:17.279Z,78.25
2022-11-10T22:08:47.082Z,77.66
2022-11-10T22:11:36.977Z,78.60
2022-11-10T22:14:30.990Z,78.10
2022-11-10T22:17:17.855Z,78.34
2022-11-10T22:19:45.405Z,78.73
2022-11-10T22:22:14.342Z,78.87
2022-11-10T22:24:41.680Z,78.47
2022-11-10T22:27:08.804Z,78.66
2022-11-10T22:29:36.229Z,78.45
2022-11-10T22:32:03.856Z,79.26
2022-11-10T22:34:30.827Z,79.24
2022-11-10T22:36:59.558Z,79.53
2022-11-10T22:39:49.475Z,79.30
2022-11-10T22:42:35.294Z,79.25
2022-11-10T22:45:02.351Z,79.35
2022-11-10T22:47:49.651Z,79.27
2022-11-10T22:50:16.697Z,79.70
2022-11-10T22:52:43.736Z,79.29
2022-11-10T22:55:10.833Z,79.67
2022-11-10T22:57:37.808Z,79.80
2022-11-10T23:00:06.394Z,79.86
2022-11-10T23:02:33.438Z,79.56
2022-11-10T23:05:00.473Z,80.26
2022-11-10T23:07:28.946Z,80.27
2022-11-10T23:09:55.925Z,80.61
2022-11-10T23:12:22.903Z,80.44
2022-11-10T23:14:49.878Z,80.17
2022-11-10T23:17:16.836Z,80.05
2022-11-10T23:19:43.824Z,80.28
2022-11-10T23:22:10.794Z,81.29
2022-11-10T23:24:37.783Z,80.98
2022-11-10T23:27:04.754Z,81.19
2022-11-10T23:29:31.742Z,80.98
2022-11-10T23:31:58.675Z,81.13
2022-11-10T23:34:25.632Z,81.73
2022-11-10T23:36:52.593Z,81.95
2022-11-10T23:39:19.557Z,81.46
2022-11-10T23:41:46.539Z,82.12
2022-11-10T23:44:13.560Z,82.40
2022-11-10T23:46:40.610Z,82.51
2022-11-10T23:49:07.564Z,82.59
2022-11-10T23:51:34.566Z,82.00
2022-11-10T23:54:01.515Z,82.13
2022-11-10T23:56:28.494Z,82.25
2022-11-10T23:58:55.467Z,82.04
